Terminal Aerodrome Forecast
Issued by NWS Mt. Holly, NJ

Home | Current Version | Previous Version | Text Only | Print | Product List | Glossary On
Versions: 1 2 3 4 5 6 7 8 9 10 11 12 13 14 15 16 17 18 19 20 21 22 23 24 25 26 27 28 29 30 31 32 33 34 35 36 37 38 39 40 41 42 43 44 45 46 47 48 49 50
000
FTAK31 PANC 031931 AAB
TAFABE
TAF AMD
PABE 031931Z 0320/0418 17007KT 3SM -SHSNRA OVC025
      TEMPO 0320/0324 2SM -SHSN OVC015
     FM040000 31011KT 2SM -SHSN OVC015
     FM040600 31010KT P6SM OVC020=

USA.gov is the U.S. government's official web portal to all federal, state and local government web resources and services.